Terminal Aerodrome Forecast
Issued by NWS

Home | Current Version | Previous Version | Text Only | Print | Product List | Glossary On
Versions: 1 2 3 4 5 6 7 8 9 10 11 12 13 14 15 16 17 18 19 20 21 22 23 24
719
FTUS43 KAPX 240537
TAFMBL
TAF
KMBL 240537Z 2406/2506 08004KT P6SM -SHRA SCT004 OVC060
      TEMPO 2406/2410 5SM -SHRA BR BKN004
     FM241000 06004KT 5SM -SHRA BR OVC004
     FM241700 05007KT P6SM VCSH SCT010 OVC040
     FM250200 06007KT P6SM BKN080=

USA.gov is the U.S. government's official web portal to all federal, state and local government web resources and services.